Impacts METAR Board
IDs:

KTPA - Tampa Intl Arpt, FL, US

Updated at: 0300 UTC 16 Aug 2018
Potential Impact None Slight Moderate High
Time 15/15Z 15/16Z 15/17Z 15/18Z 15/19Z 15/20Z 15/21Z 15/22Z 15/23Z 16/00Z 16/01Z 16/02Z 16/03Z
Temp87 89 91 91 91 92 80 79 77 77 75 75 75
Dewpt72 71 70 74 72 71 69 72 71 70 71 70 71
Altim30.12 30.13 30.12 30.10 30.09 30.07 30.06 30.07 30.08 30.09 30.10 30.11 30.12
VIS10 10 10 9 10 10 10 10 10 10 10 10 10
CIG-- -- -- -- -- -- 90 60 140 160 160 250 200
CoverSCTSCTSCTSCTSCTSCTBKNBKNBKNBKNBKNBKNBKN
FltCatVFRVFRVFRVFRVFRVFRVFRVFRVFRVFRVFRVFRVFR
WX------------VCTS -RATS----------
WDir1701401602202502400190030404060
WSpd5 7 9 8 7 8 3 7 0 5 6 6 3
WGst-- -- -- -- -- -- -- -- -- -- -- -- --
Raw hourly METARs
KTPA 151453Z 17005KT 10SM FEW030 SCT250 31/22 A3012 RMK AO2 SLP197 T03060222 53010
KTPA 151553Z 14007KT 10SM FEW035 SCT250 32/22 A3013 RMK AO2 SLP201 T03170217
KTPA 151653Z 16009KT 10SM FEW040 SCT250 33/21 A3012 RMK AO2 SLP198 T03280211
KTPA 151753Z 22008KT 9SM SCT045 33/23 A3010 RMK AO2 SLP192 T03280233 10333 20267 58005
KTPA 151853Z 25007KT 10SM SCT045TCU SCT250 33/22 A3009 RMK AO2 SLP188 TCU SE-S T03280222
KTPA 151953Z 24008KT 10SM SCT045TCU SCT250 33/22 A3007 RMK AO2 SLP180 CB DSNT E AND SE-S TCU NE-S AND DSNT SW SHRA DSNT E AND SE-S T03330217
KTPA 152053Z VRB03KT 10SM VCTS -RA SCT042CB BKN090 BKN200 27/21 A3006 RMK AO2 LTG DSNT ALQDS RAB36 TSE11 SLP180 CB N-E AND SE AND SW-W MOV N TCU ALQDS P0000 60000 T02670206 56013
KTPA 152153Z 19007KT 10SM TS SCT040CB BKN060 BKN100 BKN250 26/22 A3007 RMK AO2 LTG DSNT ALQDS RAE2055 TSB22 SLP182 OCNL LTGIC E AND SW-N TS E AND SW-NW MOV NW P0000 T02610222
KTPA 152253Z 00000KT 10SM FEW028 SCT040 BKN140 BKN190 25/22 A3008 RMK AO2 SLP184 CB DSNT N AND SE T02500217
KTPA 152353Z 03005KT 10SM FEW030 SCT090 BKN160 BKN250 25/21 A3009 RMK AO2 SLP189 CB DSNT N AND E AND SE 60000 T02500211 10333 20250 53009
KTPA 160053Z 04006KT 10SM FEW030 SCT090 BKN160 BKN250 24/22 A3010 RMK AO2 SLP193 T02390217
KTPA 160153Z 04006KT 10SM FEW032 SCT100 SCT160 BKN250 24/21 A3011 RMK AO2 SLP195 T02390211
KTPA 160253Z 06003KT 10SM FEW032 SCT070 SCT140 BKN200 24/22 A3012 RMK AO2 SLP200 OCNL LTGIC DSNT SE CB DSNT SE T02390217 53011



Page loaded:  03:07 UTC  |   08:07 PM Pacific  |   09:07 PM Mountain  |   10:07 PM Central  |   11:07 PM Eastern

 

ADVISORIES

FORECASTS

FORECASTS

OBSERVATIONS

USER TOOLS

ABOUT US